createdAt,value
2022-12-24T00:02:08.756Z,98936.78
2022-12-24T00:06:16.890Z,98945.56
2022-12-24T00:10:19.956Z,98961.28
2022-12-24T00:14:24.296Z,98952.59
2022-12-24T00:18:27.491Z,98958.72
2022-12-24T00:22:30.656Z,98955.28
2022-12-24T00:26:33.807Z,98960.56
2022-12-24T00:30:38.963Z,98959.78
2022-12-24T00:34:41.942Z,98974.66
2022-12-24T00:38:45.468Z,98994.78
2022-12-24T00:42:48.351Z,98981.72
2022-12-24T00:46:52.756Z,98984.28
2022-12-24T00:50:55.720Z,99006.09
2022-12-24T00:54:58.674Z,98983.22
2022-12-24T00:59:01.827Z,99002.41
2022-12-24T01:03:06.219Z,99005.81
2022-12-24T01:07:09.279Z,99018.88
2022-12-24T01:11:13.828Z,99015.31
2022-12-24T01:15:16.804Z,99010.88
2022-12-24T01:19:21.127Z,98987.13
2022-12-24T01:23:24.008Z,98981.88
2022-12-24T01:27:27.040Z,98978.31
2022-12-24T01:31:30.040Z,98950.97
2022-12-24T01:35:34.438Z,98947.38
2022-12-24T01:39:37.367Z,98981.47
2022-12-24T01:43:39.421Z,98986.66
2022-12-24T01:47:42.377Z,98993.56
2022-12-24T01:51:50.123Z,98999.63
2022-12-24T01:55:54.102Z,99003.13
2022-12-24T01:59:59.643Z,99005.75
2022-12-24T02:04:06.256Z,99012.75
2022-12-24T02:08:11.181Z,99008.31
2022-12-24T02:12:14.138Z,98999.56
2022-12-24T02:16:29.351Z,98998.56
2022-12-24T02:20:56.407Z,98994.97
2022-12-24T02:25:17.388Z,99000.13
2022-12-24T02:34:03.375Z,99002.59
2022-12-24T02:38:12.141Z,98997.28
2022-12-24T02:42:19.864Z,98991.06
2022-12-24T02:46:26.532Z,98995.47
2022-12-24T02:50:31.429Z,98991.97
2022-12-24T02:54:34.646Z,98982.34
2022-12-24T02:58:48.991Z,98994.69
2022-12-24T03:03:13.693Z,99001.72
2022-12-24T03:07:23.659Z,98999.13
2022-12-24T03:11:27.076Z,99006.16
2022-12-24T03:15:32.906Z,99014.06
2022-12-24T03:19:36.483Z,99006.09
2022-12-24T03:23:41.007Z,99015.69
2022-12-24T03:27:45.871Z,99021.78
2022-12-24T03:31:51.109Z,99029.66
2022-12-24T03:35:54.537Z,99041.09
2022-12-24T03:39:58.849Z,99050.78
2022-12-24T03:44:01.917Z,99058.59
2022-12-24T03:48:05.251Z,99065.63
2022-12-24T03:52:08.183Z,99058.59
2022-12-24T03:56:12.489Z,99056.84
2022-12-24T04:00:16.589Z,99069.13
2022-12-24T04:04:19.510Z,99061.22
2022-12-24T04:08:22.511Z,99075.25
2022-12-24T04:12:26.804Z,99073.50
2022-12-24T04:16:29.847Z,99091.91
2022-12-24T04:20:32.829Z,99097.22
2022-12-24T04:24:35.813Z,99088.47
2022-12-24T04:28:41.408Z,99096.41
2022-12-24T04:32:44.458Z,99102.56
2022-12-24T04:36:48.927Z,99106.97
2022-12-24T04:40:59.388Z,99098.25
2022-12-24T04:45:03.713Z,99112.38
2022-12-24T04:49:06.638Z,99107.22
2022-12-24T04:53:09.538Z,99117.78
2022-12-24T04:57:12.495Z,99131.84
2022-12-24T05:01:19.880Z,99130.16
2022-12-24T05:05:22.880Z,99147.75
2022-12-24T05:09:25.782Z,99142.56
2022-12-24T05:13:37.674Z,99155.78
2022-12-24T05:17:46.871Z,99153.22
2022-12-24T05:22:09.851Z,99165.53
2022-12-24T05:26:22.667Z,99177.00
2022-12-24T05:30:25.582Z,99157.75
2022-12-24T05:34:29.888Z,99173.53
2022-12-24T05:38:32.845Z,99186.69
2022-12-24T05:42:35.763Z,99185.78
2022-12-24T05:46:38.875Z,99193.66
2022-12-24T05:50:43.344Z,99184.84
2022-12-24T05:54:46.235Z,99204.16
2022-12-24T05:58:49.308Z,99206.81
2022-12-24T06:02:52.241Z,99193.66
2022-12-24T06:06:56.645Z,99174.38
2022-12-24T06:11:01.838Z,99219.13
2022-12-24T06:15:05.826Z,99227.00
2022-12-24T06:19:08.716Z,99238.41
2022-12-24T06:23:13.379Z,99253.25
2022-12-24T06:27:16.291Z,99266.38
2022-12-24T06:31:21.841Z,99267.25
2022-12-24T06:35:25.004Z,99257.56
2022-12-24T06:39:29.565Z,99262.81
2022-12-24T06:43:34.532Z,99261.91
2022-12-24T06:47:37.447Z,99261.91
2022-12-24T06:51:40.397Z,99267.19
2022-12-24T06:55:45.029Z,99267.19
2022-12-24T06:59:48.939Z,99270.69
2022-12-24T07:03:52.453Z,99286.53
2022-12-24T07:07:59.031Z,99286.53
2022-12-24T07:12:03.663Z,99306.75
2022-12-24T07:16:07.022Z,99314.66
2022-12-24T07:20:14.599Z,99324.28
2022-12-24T07:24:17.924Z,99309.38
2022-12-24T07:28:27.847Z,99309.34
2022-12-24T07:32:31.172Z,99321.63
2022-12-24T07:36:34.406Z,99319.78
2022-12-24T07:40:37.987Z,99332.00
2022-12-24T07:44:42.303Z,99328.44
2022-12-24T07:48:45.245Z,99347.75
2022-12-24T07:52:48.191Z,99367.03
2022-12-24T07:56:51.342Z,99368.81
2022-12-24T08:01:00.407Z,99380.28
2022-12-24T08:05:03.426Z,99382.94
2022-12-24T08:09:06.682Z,99381.19
2022-12-24T08:13:10.104Z,99395.25
2022-12-24T08:17:14.401Z,99385.56
2022-12-24T08:21:17.354Z,99389.97
2022-12-24T08:25:20.533Z,99392.56
2022-12-24T08:29:23.444Z,99409.25
2022-12-24T08:33:27.779Z,99426.75
2022-12-24T08:37:30.700Z,99430.28
2022-12-24T08:41:33.880Z,99425.00
2022-12-24T08:45:40.951Z,99431.13
2022-12-24T08:49:45.453Z,99435.53
2022-12-24T08:53:48.447Z,99449.56
2022-12-24T08:57:51.354Z,99465.38
2022-12-24T09:01:54.309Z,99469.72
2022-12-24T09:05:58.904Z,99477.63
2022-12-24T09:10:01.847Z,99481.09
2022-12-24T09:14:04.878Z,99493.34
2022-12-24T09:18:07.850Z,99496.81
2022-12-24T09:22:12.122Z,99497.69
2022-12-24T09:26:16.959Z,99505.53
2022-12-24T09:30:20.326Z,99509.03
2022-12-24T09:34:30.029Z,99515.16
2022-12-24T09:38:35.949Z,99524.78
2022-12-24T09:42:51.892Z,99514.19
2022-12-24T09:46:56.077Z,99523.75
2022-12-24T09:51:04.492Z,99528.94
2022-12-24T09:55:20.696Z,99541.25
2022-12-24T09:59:26.748Z,99540.31
2022-12-24T10:03:29.830Z,99548.13
2022-12-24T10:07:43.420Z,99547.25
2022-12-24T10:11:55.148Z,99560.44
2022-12-24T10:16:03.708Z,99553.38
2022-12-24T10:20:28.364Z,99559.50
2022-12-24T10:24:43.425Z,99565.59
2022-12-24T10:28:54.569Z,99584.00
2022-12-24T10:32:57.698Z,99576.97
2022-12-24T10:37:04.311Z,99580.50
2022-12-24T10:41:08.321Z,99585.78
2022-12-24T10:45:18.560Z,99592.84
2022-12-24T10:49:31.128Z,99589.28
2022-12-24T10:53:41.339Z,99603.41
2022-12-24T10:57:46.056Z,99593.75
2022-12-24T11:01:51.366Z,99601.66
2022-12-24T11:06:05.992Z,99599.94
2022-12-24T11:10:23.940Z,99592.88
2022-12-24T11:14:33.945Z,99591.94
2022-12-24T11:18:50.821Z,99589.25
2022-12-24T11:22:54.983Z,99594.47
2022-12-24T11:27:24.355Z,99582.09
2022-12-24T11:31:29.324Z,99583.84
2022-12-24T11:35:34.777Z,99576.78
2022-12-24T11:39:41.203Z,99572.34
2022-12-24T11:43:46.468Z,99567.91
2022-12-24T11:47:52.072Z,99586.41
2022-12-24T11:52:24.690Z,99567.03
2022-12-24T11:56:35.182Z,99566.19
2022-12-24T12:00:40.470Z,99579.44
2022-12-24T12:04:47.842Z,99577.72
2022-12-24T12:08:55.097Z,99576.03
2022-12-24T12:13:02.146Z,99579.59
2022-12-24T12:17:25.637Z,99575.22
2022-12-24T12:21:36.751Z,99578.75
2022-12-24T12:25:46.787Z,99580.53
2022-12-24T12:29:57.189Z,99594.63
2022-12-24T12:34:06.012Z,99595.53
2022-12-24T12:38:13.563Z,99594.69
2022-12-24T12:42:23.568Z,99605.25
2022-12-24T12:46:34.803Z,99614.97
2022-12-24T12:50:46.479Z,99628.19
2022-12-24T12:55:03.691Z,99635.25
2022-12-24T12:59:14.298Z,99644.03
2022-12-24T13:03:40.438Z,99650.16
2022-12-24T13:08:06.176Z,99651.94
2022-12-24T13:12:48.897Z,99660.78
2022-12-24T13:17:18.184Z,99661.69
2022-12-24T13:21:24.005Z,99672.28
2022-12-24T13:25:38.676Z,99667.88
2022-12-24T13:29:45.279Z,99682.00
2022-12-24T13:33:50.311Z,99689.94
2022-12-24T13:37:53.645Z,99698.72
2022-12-24T13:41:56.670Z,99698.72
2022-12-24T13:46:01.045Z,99707.50
2022-12-24T13:50:23.424Z,99696.06
2022-12-24T13:54:28.596Z,99700.47
2022-12-24T13:58:32.321Z,99707.50
2022-12-24T14:02:46.747Z,99708.41
2022-12-24T14:06:52.873Z,99709.25
2022-12-24T14:11:04.701Z,99713.63
2022-12-24T14:15:37.298Z,99727.75
2022-12-24T14:19:44.058Z,99742.72
2022-12-24T14:23:54.718Z,99751.56
2022-12-24T14:28:01.711Z,99750.69
2022-12-24T14:32:16.197Z,99761.25
2022-12-24T14:36:24.982Z,99763.00
2022-12-24T14:40:29.867Z,99759.47
2022-12-24T14:44:42.400Z,99763.00
2022-12-24T14:48:53.232Z,99769.19
2022-12-24T14:53:07.354Z,99785.94
2022-12-24T14:57:22.617Z,99776.28
2022-12-24T15:01:28.301Z,99786.88
2022-12-24T15:05:31.323Z,99796.56
2022-12-24T15:09:39.977Z,99800.09
2022-12-24T15:13:45.340Z,99807.13
2022-12-24T15:17:48.319Z,99815.91
2022-12-24T15:21:51.687Z,99812.41
2022-12-24T15:26:07.578Z,99815.91
2022-12-24T15:30:16.383Z,99813.28
2022-12-24T15:34:27.985Z,99815.03
2022-12-24T15:38:33.941Z,99815.03
2022-12-24T15:42:43.467Z,99815.03
2022-12-24T15:46:46.531Z,99822.91
2022-12-24T15:50:51.338Z,99825.59
2022-12-24T15:54:58.078Z,99827.31
2022-12-24T15:59:35.749Z,99831.72
2022-12-24T16:03:40.444Z,99844.03
2022-12-24T16:07:57.373Z,99851.91
2022-12-24T16:12:03.462Z,99852.75
2022-12-24T16:16:11.260Z,99850.16
2022-12-24T16:20:21.010Z,99853.63
2022-12-24T16:24:26.896Z,99860.66
2022-12-24T16:28:30.195Z,99867.66
2022-12-24T16:32:38.020Z,99866.78
2022-12-24T16:36:42.917Z,99878.19
2022-12-24T16:40:45.872Z,99885.19
2022-12-24T16:44:49.501Z,99870.28
2022-12-24T16:48:53.949Z,99867.66
2022-12-24T16:52:57.025Z,99880.84
2022-12-24T16:57:00.028Z,99897.53
2022-12-24T17:01:09.260Z,99898.41
2022-12-24T17:05:13.792Z,99902.78
2022-12-24T17:09:16.767Z,99912.44
2022-12-24T17:13:19.928Z,99914.19
2022-12-24T17:17:26.019Z,99915.97
2022-12-24T17:21:30.564Z,99920.34
2022-12-24T17:25:33.549Z,99926.53
2022-12-24T17:29:36.652Z,99925.59
2022-12-24T17:33:39.734Z,99929.13
2022-12-24T17:37:44.047Z,99932.63
2022-12-24T17:41:47.337Z,99939.63
2022-12-24T17:45:50.333Z,99942.25
2022-12-24T17:49:53.552Z,99947.47
2022-12-24T17:53:58.024Z,99941.25
2022-12-24T17:58:01.343Z,99942.03
2022-12-24T18:02:04.701Z,99948.97
2022-12-24T18:06:09.658Z,99951.53
2022-12-24T18:10:14.202Z,99949.75
2022-12-24T18:14:17.223Z,99946.22
2022-12-24T18:18:20.350Z,99953.22
2022-12-24T18:22:23.286Z,99955.84
2022-12-24T18:26:29.421Z,99956.75
2022-12-24T18:30:32.373Z,99951.47
2022-12-24T18:34:35.569Z,99954.16
2022-12-24T18:38:38.919Z,99958.63
2022-12-24T18:42:43.547Z,99963.06
2022-12-24T18:46:46.655Z,99974.53
2022-12-24T18:50:55.824Z,99972.81
2022-12-24T18:54:58.861Z,99983.41
2022-12-24T18:59:04.581Z,99995.72
2022-12-24T19:03:08.186Z,100008.91
2022-12-24T19:07:11.699Z,100023.03
2022-12-24T19:11:14.602Z,100025.66
2022-12-24T19:15:19.408Z,100017.75
2022-12-24T19:19:24.119Z,100029.19
2022-12-24T19:23:27.945Z,100030.97
2022-12-24T19:27:30.899Z,100040.63
2022-12-24T19:31:36.159Z,100046.78
2022-12-24T19:35:39.940Z,100053.78
2022-12-24T19:39:43.246Z,100056.41
2022-12-24T19:43:48.196Z,100054.59
2022-12-24T19:47:53.533Z,100058.06
2022-12-24T19:51:57.153Z,100061.56
2022-12-24T19:56:00.866Z,100075.56
2022-12-24T20:00:05.533Z,100079.94
2022-12-24T20:04:28.307Z,100082.53
2022-12-24T20:08:32.325Z,100086.94
2022-12-24T20:12:35.785Z,100090.41
2022-12-24T20:16:38.836Z,100105.25
2022-12-24T20:20:44.549Z,100098.16
2022-12-24T20:24:48.245Z,100111.25
2022-12-24T20:28:51.664Z,100109.38
2022-12-24T20:32:56.768Z,100112.03
2022-12-24T20:37:03.236Z,100111.94
2022-12-24T20:41:09.890Z,100105.78
2022-12-24T20:45:13.822Z,100105.72
2022-12-24T20:49:18.233Z,100109.13
2022-12-24T20:53:23.112Z,100100.34
2022-12-24T20:57:31.470Z,100109.03
2022-12-24T21:01:40.078Z,100111.63
2022-12-24T21:05:44.471Z,100122.16
2022-12-24T21:09:48.977Z,100120.41
2022-12-24T21:13:52.521Z,100122.13
2022-12-24T21:17:56.542Z,100116.91
2022-12-24T21:22:00.355Z,100122.25
2022-12-24T21:26:06.745Z,100118.78
2022-12-24T21:30:11.170Z,100131.09
2022-12-24T21:34:14.450Z,100119.66
2022-12-24T21:38:17.597Z,100115.28
2022-12-24T21:42:25.594Z,100110.03
2022-12-24T21:46:29.064Z,100110.13
2022-12-24T21:50:49.672Z,100110.09
2022-12-24T21:54:53.871Z,100103.09
2022-12-24T21:58:58.550Z,100098.63
2022-12-24T22:03:02.770Z,100098.63
2022-12-24T22:07:23.714Z,100096.91
2022-12-24T22:11:50.196Z,100099.56
2022-12-24T22:15:58.785Z,100092.59
2022-12-24T22:20:02.649Z,100089.16
2022-12-24T22:24:06.989Z,100093.56
2022-12-24T22:28:10.750Z,100103.28
2022-12-24T22:32:16.563Z,100109.44
2022-12-24T22:36:20.049Z,100123.47
2022-12-24T22:40:23.075Z,100126.06
2022-12-24T22:44:26.915Z,100124.31
2022-12-24T22:48:31.413Z,100121.72
2022-12-24T22:52:35.284Z,100129.63
2022-12-24T22:56:41.284Z,100127.03
2022-12-24T23:00:46.312Z,100127.06
2022-12-24T23:04:50.837Z,100130.59
2022-12-24T23:08:53.796Z,100133.25
2022-12-24T23:13:15.451Z,100139.38
2022-12-24T23:17:18.860Z,100149.91
2022-12-24T23:21:23.190Z,100148.16
2022-12-24T23:25:26.622Z,100147.31
2022-12-24T23:29:29.873Z,100155.22
2022-12-24T23:33:32.823Z,100158.72
2022-12-24T23:37:37.331Z,100164.03
2022-12-24T23:41:40.196Z,100169.34
2022-12-24T23:45:47.882Z,100171.06
2022-12-24T23:49:50.794Z,100172.81
2022-12-24T23:53:57.544Z,100175.44
2022-12-24T23:58:00.481Z,100175.44
